sensor_id;sensor_type;location;lat;lon;timestamp;temperature;humidity
40848;DHT22;26570;50.962;5.340;2023-03-07T01:03:11;5.80;99.90
40848;DHT22;26570;50.962;5.340;2023-03-07T01:05:57;5.70;99.90
40848;DHT22;26570;50.962;5.340;2023-03-07T01:08:48;5.70;99.90
40848;DHT22;26570;50.962;5.340;2023-03-07T01:11:34;5.70;99.90
40848;DHT22;26570;50.962;5.340;2023-03-07T01:14:20;5.60;99.90
40848;DHT22;26570;50.962;5.340;2023-03-07T01:17:05;5.50;99.90
40848;DHT22;26570;50.962;5.340;2023-03-07T01:19:50;5.60;99.90
40848;DHT22;26570;50.962;5.340;2023-03-07T01:22:35;5.70;99.90
40848;DHT22;26570;50.962;5.340;2023-03-07T01:25:23;5.80;99.90
40848;DHT22;26570;50.962;5.340;2023-03-07T01:28:30;5.80;99.90
40848;DHT22;26570;50.962;5.340;2023-03-07T01:31:15;5.90;99.90
40848;DHT22;26570;50.962;5.340;2023-03-07T01:34:03;6.00;99.90
40848;DHT22;26570;50.962;5.340;2023-03-07T01:36:52;5.80;99.90
40848;DHT22;26570;50.962;5.340;2023-03-07T01:39:37;6.00;99.90
40848;DHT22;26570;50.962;5.340;2023-03-07T01:42:31;5.90;99.90
40848;DHT22;26570;50.962;5.340;2023-03-07T01:48:17;5.70;99.90
40848;DHT22;26570;50.962;5.340;2023-03-07T01:51:02;5.80;99.90
40848;DHT22;26570;50.962;5.340;2023-03-07T01:53:48;5.80;99.90
40848;DHT22;26570;50.962;5.340;2023-03-07T01:56:36;5.80;99.90
40848;DHT22;26570;50.962;5.340;2023-03-07T01:59:28;5.80;99.90
40848;DHT22;26570;50.962;5.340;2023-03-07T05:58:22;5.20;99.90
40848;DHT22;26570;50.962;5.340;2023-03-07T06:01:07;5.20;99.90
40848;DHT22;26570;50.962;5.340;2023-03-07T06:04:14;5.20;99.90
40848;DHT22;26570;50.962;5.340;2023-03-07T06:06:59;5.30;99.90
40848;DHT22;26570;50.962;5.340;2023-03-07T06:09:45;5.40;99.90
40848;DHT22;26570;50.962;5.340;2023-03-07T06:12:30;5.40;99.90
40848;DHT22;26570;50.962;5.340;2023-03-07T06:15:15;5.50;99.90
40848;DHT22;26570;50.962;5.340;2023-03-07T06:18:01;5.40;99.90
40848;DHT22;26570;50.962;5.340;2023-03-07T06:21:03;5.30;99.90
40848;DHT22;26570;50.962;5.340;2023-03-07T06:23:49;5.40;99.90
40848;DHT22;26570;50.962;5.340;2023-03-07T06:26:34;5.30;99.90
40848;DHT22;26570;50.962;5.340;2023-03-07T06:29:19;5.30;99.90
40848;DHT22;26570;50.962;5.340;2023-03-07T06:32:04;5.30;99.90
40848;DHT22;26570;50.962;5.340;2023-03-07T06:34:49;5.20;99.90
40848;DHT22;26570;50.962;5.340;2023-03-07T06:37:35;5.30;99.90
40848;DHT22;26570;50.962;5.340;2023-03-07T06:40:20;5.20;99.90
40848;DHT22;26570;50.962;5.340;2023-03-07T06:43:05;5.20;99.90
40848;DHT22;26570;50.962;5.340;2023-03-07T06:46:13;5.30;99.90
40848;DHT22;26570;50.962;5.340;2023-03-07T06:49:23;5.40;99.90
40848;DHT22;26570;50.962;5.340;2023-03-07T06:52:09;5.30;99.90
40848;DHT22;26570;50.962;5.340;2023-03-07T06:54:54;5.30;99.90
40848;DHT22;26570;50.962;5.340;2023-03-07T06:57:39;5.20;99.90
40848;DHT22;26570;50.962;5.340;2023-03-07T07:00:25;5.20;99.90
40848;DHT22;26570;50.962;5.340;2023-03-07T07:03:14;5.20;99.90
40848;DHT22;26570;50.962;5.340;2023-03-07T07:06:23;5.30;99.90
40848;DHT22;26570;50.962;5.340;2023-03-07T07:09:11;5.30;99.90
40848;DHT22;26570;50.962;5.340;2023-03-07T07:11:57;5.30;99.90
40848;DHT22;26570;50.962;5.340;2023-03-07T07:14:43;5.30;99.90
40848;DHT22;26570;50.962;5.340;2023-03-07T07:17:28;5.30;99.90
40848;DHT22;26570;50.962;5.340;2023-03-07T07:20:14;5.40;99.90
40848;DHT22;26570;50.962;5.340;2023-03-07T07:22:59;5.50;99.90
40848;DHT22;26570;50.962;5.340;2023-03-07T07:25:44;5.50;99.90
40848;DHT22;26570;50.962;5.340;2023-03-07T07:28:30;5.30;99.90
40848;DHT22;26570;50.962;5.340;2023-03-07T07:31:16;5.30;99.90
40848;DHT22;26570;50.962;5.340;2023-03-07T07:34:02;5.30;99.90
40848;DHT22;26570;50.962;5.340;2023-03-07T07:36:48;5.40;99.90
40848;DHT22;26570;50.962;5.340;2023-03-07T07:39:33;5.30;99.90
40848;DHT22;26570;50.962;5.340;2023-03-07T07:42:18;5.30;99.90
40848;DHT22;26570;50.962;5.340;2023-03-07T07:45:04;5.40;99.90
40848;DHT22;26570;50.962;5.340;2023-03-07T07:47:50;5.50;99.90
40848;DHT22;26570;50.962;5.340;2023-03-07T07:50:36;5.50;99.90
40848;DHT22;26570;50.962;5.340;2023-03-07T07:53:21;5.50;99.90
40848;DHT22;26570;50.962;5.340;2023-03-07T07:56:07;5.50;99.90
40848;DHT22;26570;50.962;5.340;2023-03-07T07:58:52;5.60;99.90
40848;DHT22;26570;50.962;5.340;2023-03-07T08:01:38;5.60;99.90
40848;DHT22;26570;50.962;5.340;2023-03-07T08:04:23;5.60;99.90
40848;DHT22;26570;50.962;5.340;2023-03-07T08:07:09;5.60;99.90
40848;DHT22;26570;50.962;5.340;2023-03-07T08:09:54;5.60;99.90
40848;DHT22;26570;50.962;5.340;2023-03-07T08:12:39;5.60;99.90
40848;DHT22;26570;50.962;5.340;2023-03-07T08:15:25;5.60;99.90
40848;DHT22;26570;50.962;5.340;2023-03-07T08:18:10;5.60;99.90
40848;DHT22;26570;50.962;5.340;2023-03-07T08:20:58;5.80;99.90
40848;DHT22;26570;50.962;5.340;2023-03-07T08:23:44;5.80;99.90
40848;DHT22;26570;50.962;5.340;2023-03-07T08:26:29;5.90;99.90
40848;DHT22;26570;50.962;5.340;2023-03-07T08:29:15;5.80;99.90
40848;DHT22;26570;50.962;5.340;2023-03-07T08:32:00;6.00;99.90
40848;DHT22;26570;50.962;5.340;2023-03-07T08:35:08;6.10;99.90
40848;DHT22;26570;50.962;5.340;2023-03-07T08:37:55;6.20;99.90
40848;DHT22;26570;50.962;5.340;2023-03-07T08:40:41;6.20;99.90
40848;DHT22;26570;50.962;5.340;2023-03-07T08:43:28;6.10;99.90
40848;DHT22;26570;50.962;5.340;2023-03-07T08:46:14;6.10;99.90
40848;DHT22;26570;50.962;5.340;2023-03-07T08:49:21;6.10;99.90
40848;DHT22;26570;50.962;5.340;2023-03-07T08:52:06;6.10;99.90
40848;DHT22;26570;50.962;5.340;2023-03-07T08:54:52;6.20;99.90
40848;DHT22;26570;50.962;5.340;2023-03-07T08:57:37;6.30;99.90
40848;DHT22;26570;50.962;5.340;2023-03-07T09:00:22;6.20;99.90
40848;DHT22;26570;50.962;5.340;2023-03-07T09:03:08;6.00;99.90
40848;DHT22;26570;50.962;5.340;2023-03-07T09:05:53;5.90;99.90
40848;DHT22;26570;50.962;5.340;2023-03-07T09:08:39;5.90;99.90
40848;DHT22;26570;50.962;5.340;2023-03-07T09:11:24;6.00;99.90
40848;DHT22;26570;50.962;5.340;2023-03-07T09:14:10;6.10;99.90
40848;DHT22;26570;50.962;5.340;2023-03-07T09:16:55;6.10;99.90
40848;DHT22;26570;50.962;5.340;2023-03-07T09:19:40;6.20;99.90
40848;DHT22;26570;50.962;5.340;2023-03-07T09:22:27;6.10;99.90
40848;DHT22;26570;50.962;5.340;2023-03-07T09:25:13;6.00;99.90
40848;DHT22;26570;50.962;5.340;2023-03-07T09:27:58;6.00;99.90
40848;DHT22;26570;50.962;5.340;2023-03-07T09:30:44;5.90;99.90
40848;DHT22;26570;50.962;5.340;2023-03-07T09:33:29;5.90;99.90
40848;DHT22;26570;50.962;5.340;2023-03-07T09:36:15;6.00;99.90
40848;DHT22;26570;50.962;5.340;2023-03-07T09:39:04;6.10;99.90
40848;DHT22;26570;50.962;5.340;2023-03-07T09:41:57;6.10;99.90
40848;DHT22;26570;50.962;5.340;2023-03-07T09:51:38;5.90;99.90
40848;DHT22;26570;50.962;5.340;2023-03-07T09:54:41;5.80;99.90
40848;DHT22;26570;50.962;5.340;2023-03-07T09:57:31;5.80;99.90
40848;DHT22;26570;50.962;5.340;2023-03-07T10:00:34;5.80;99.90
40848;DHT22;26570;50.962;5.340;2023-03-07T10:04:05;6.00;99.90
40848;DHT22;26570;50.962;5.340;2023-03-07T10:06:56;6.00;99.90
40848;DHT22;26570;50.962;5.340;2023-03-07T10:09:43;6.00;99.90
40848;DHT22;26570;50.962;5.340;2023-03-07T10:12:58;6.00;99.90
40848;DHT22;26570;50.962;5.340;2023-03-07T10:15:49;5.90;99.90
40848;DHT22;26570;50.962;5.340;2023-03-07T10:22:17;6.10;99.90
40848;DHT22;26570;50.962;5.340;2023-03-07T10:28:18;6.40;99.90
40848;DHT22;26570;50.962;5.340;2023-03-07T10:33:58;6.10;99.90
40848;DHT22;26570;50.962;5.340;2023-03-07T10:36:45;6.10;99.90
40848;DHT22;26570;50.962;5.340;2023-03-07T10:39:42;6.10;99.90
40848;DHT22;26570;50.962;5.340;2023-03-07T10:42:34;6.20;99.90
40848;DHT22;26570;50.962;5.340;2023-03-07T10:45:21;6.30;99.90
40848;DHT22;26570;50.962;5.340;2023-03-07T10:48:08;6.40;99.90
40848;DHT22;26570;50.962;5.340;2023-03-07T10:54:31;6.40;99.90
40848;DHT22;26570;50.962;5.340;2023-03-07T10:57:18;6.20;99.90
40848;DHT22;26570;50.962;5.340;2023-03-07T11:00:13;6.40;99.90
40848;DHT22;26570;50.962;5.340;2023-03-07T11:06:27;6.40;99.90
40848;DHT22;26570;50.962;5.340;2023-03-07T11:12:12;6.30;99.90
40848;DHT22;26570;50.962;5.340;2023-03-07T11:15:23;6.30;99.90
40848;DHT22;26570;50.962;5.340;2023-03-07T11:18:36;6.20;99.90
40848;DHT22;26570;50.962;5.340;2023-03-07T11:21:31;6.40;99.90
40848;DHT22;26570;50.962;5.340;2023-03-07T11:24:39;6.30;99.90
40848;DHT22;26570;50.962;5.340;2023-03-07T11:28:26;6.40;99.90
40848;DHT22;26570;50.962;5.340;2023-03-07T11:31:22;6.40;99.90
40848;DHT22;26570;50.962;5.340;2023-03-07T11:38:04;6.60;99.90
40848;DHT22;26570;50.962;5.340;2023-03-07T11:41:35;6.70;99.90
40848;DHT22;26570;50.962;5.340;2023-03-07T11:47:23;6.70;99.90
40848;DHT22;26570;50.962;5.340;2023-03-07T11:50:21;6.70;99.90
40848;DHT22;26570;50.962;5.340;2023-03-07T11:53:23;6.80;99.90
40848;DHT22;26570;50.962;5.340;2023-03-07T11:56:27;6.80;99.90
40848;DHT22;26570;50.962;5.340;2023-03-07T12:05:25;6.70;99.90
40848;DHT22;26570;50.962;5.340;2023-03-07T12:24:29;6.50;99.90
40848;DHT22;26570;50.962;5.340;2023-03-07T12:27:27;6.60;99.90
40848;DHT22;26570;50.962;5.340;2023-03-07T12:30:48;6.40;99.90
40848;DHT22;26570;50.962;5.340;2023-03-07T12:42:36;6.20;99.90
40848;DHT22;26570;50.962;5.340;2023-03-07T12:45:50;6.00;99.90
40848;DHT22;26570;50.962;5.340;2023-03-07T12:52:05;6.00;99.90
40848;DHT22;26570;50.962;5.340;2023-03-07T12:55:03;6.10;99.90
40848;DHT22;26570;50.962;5.340;2023-03-07T13:01:30;5.80;99.90
40848;DHT22;26570;50.962;5.340;2023-03-07T13:08:01;5.80;99.90
40848;DHT22;26570;50.962;5.340;2023-03-07T13:10:52;6.10;99.90
40848;DHT22;26570;50.962;5.340;2023-03-07T13:17:01;5.90;99.90
40848;DHT22;26570;50.962;5.340;2023-03-07T13:19:52;5.60;99.90
40848;DHT22;26570;50.962;5.340;2023-03-07T13:25:45;5.50;99.90
40848;DHT22;26570;50.962;5.340;2023-03-07T13:28:43;5.70;99.90
40848;DHT22;26570;50.962;5.340;2023-03-07T13:31:37;5.80;99.90
40848;DHT22;26570;50.962;5.340;2023-03-07T13:34:44;5.90;99.90
40848;DHT22;26570;50.962;5.340;2023-03-07T13:37:54;6.00;99.90
40848;DHT22;26570;50.962;5.340;2023-03-07T13:41:06;6.10;99.90
40848;DHT22;26570;50.962;5.340;2023-03-07T13:43:53;6.10;99.90
40848;DHT22;26570;50.962;5.340;2023-03-07T13:47:40;6.20;99.90
40848;DHT22;26570;50.962;5.340;2023-03-07T14:01:59;6.40;99.90
40848;DHT22;26570;50.962;5.340;2023-03-07T14:05:08;6.60;99.90
40848;DHT22;26570;50.962;5.340;2023-03-07T14:07:53;6.80;99.90
40848;DHT22;26570;50.962;5.340;2023-03-07T14:10:38;6.50;99.90
40848;DHT22;26570;50.962;5.340;2023-03-07T14:13:37;6.40;99.90
40848;DHT22;26570;50.962;5.340;2023-03-07T14:25:50;6.50;99.90
40848;DHT22;26570;50.962;5.340;2023-03-07T14:28:50;6.60;99.90
40848;DHT22;26570;50.962;5.340;2023-03-07T14:31:39;6.60;99.90
40848;DHT22;26570;50.962;5.340;2023-03-07T14:34:25;6.50;99.90
40848;DHT22;26570;50.962;5.340;2023-03-07T14:37:16;6.50;99.90
40848;DHT22;26570;50.962;5.340;2023-03-07T14:40:32;6.70;99.90
40848;DHT22;26570;50.962;5.340;2023-03-07T14:47:10;6.20;99.90
40848;DHT22;26570;50.962;5.340;2023-03-07T14:53:03;6.40;99.90
40848;DHT22;26570;50.962;5.340;2023-03-07T14:55:51;6.30;99.90
40848;DHT22;26570;50.962;5.340;2023-03-07T14:58:52;6.20;99.90
40848;DHT22;26570;50.962;5.340;2023-03-07T15:01:39;5.90;99.90
40848;DHT22;26570;50.962;5.340;2023-03-07T15:04:27;5.70;99.90
40848;DHT22;26570;50.962;5.340;2023-03-07T15:07:20;5.90;99.90
40848;DHT22;26570;50.962;5.340;2023-03-07T15:10:56;5.90;99.90
40848;DHT22;26570;50.962;5.340;2023-03-07T15:16:32;5.80;99.90
40848;DHT22;26570;50.962;5.340;2023-03-07T15:19:46;5.70;99.90
40848;DHT22;26570;50.962;5.340;2023-03-07T15:22:35;5.80;99.90
40848;DHT22;26570;50.962;5.340;2023-03-07T15:25:24;5.70;99.90
40848;DHT22;26570;50.962;5.340;2023-03-07T15:28:20;5.90;99.90
40848;DHT22;26570;50.962;5.340;2023-03-07T15:31:07;5.80;99.90
40848;DHT22;26570;50.962;5.340;2023-03-07T15:34:08;5.90;99.90
40848;DHT22;26570;50.962;5.340;2023-03-07T15:37:26;5.80;99.90
40848;DHT22;26570;50.962;5.340;2023-03-07T15:40:32;5.80;99.90
40848;DHT22;26570;50.962;5.340;2023-03-07T15:46:13;5.90;99.90
40848;DHT22;26570;50.962;5.340;2023-03-07T15:49:01;5.90;99.90
40848;DHT22;26570;50.962;5.340;2023-03-07T15:51:50;5.50;99.90
40848;DHT22;26570;50.962;5.340;2023-03-07T15:54:40;5.60;99.90
40848;DHT22;26570;50.962;5.340;2023-03-07T15:57:53;5.60;99.90
40848;DHT22;26570;50.962;5.340;2023-03-07T16:00:40;5.40;99.90
40848;DHT22;26570;50.962;5.340;2023-03-07T16:03:29;5.30;99.90
40848;DHT22;26570;50.962;5.340;2023-03-07T16:06:38;5.30;99.90
40848;DHT22;26570;50.962;5.340;2023-03-07T16:09:28;5.20;99.90
40848;DHT22;26570;50.962;5.340;2023-03-07T16:12:16;5.50;99.90
40848;DHT22;26570;50.962;5.340;2023-03-07T16:15:03;5.80;99.90
40848;DHT22;26570;50.962;5.340;2023-03-07T16:18:21;5.80;99.90
40848;DHT22;26570;50.962;5.340;2023-03-07T16:21:11;5.70;99.90
40848;DHT22;26570;50.962;5.340;2023-03-07T16:23:57;5.70;99.90
40848;DHT22;26570;50.962;5.340;2023-03-07T16:26:43;5.50;99.90
40848;DHT22;26570;50.962;5.340;2023-03-07T16:29:29;5.50;99.90
40848;DHT22;26570;50.962;5.340;2023-03-07T16:32:19;5.50;99.90
40848;DHT22;26570;50.962;5.340;2023-03-07T16:35:16;5.40;99.90
40848;DHT22;26570;50.962;5.340;2023-03-07T16:38:01;5.40;99.90
40848;DHT22;26570;50.962;5.340;2023-03-07T16:40:47;5.70;99.90
40848;DHT22;26570;50.962;5.340;2023-03-07T16:43:38;5.60;99.90
40848;DHT22;26570;50.962;5.340;2023-03-07T16:46:24;5.30;99.90
40848;DHT22;26570;50.962;5.340;2023-03-07T16:49:16;5.20;99.90
40848;DHT22;26570;50.962;5.340;2023-03-07T16:52:02;5.00;99.90
40848;DHT22;26570;50.962;5.340;2023-03-07T16:54:47;5.10;99.90
40848;DHT22;26570;50.962;5.340;2023-03-07T16:57:33;5.30;99.90
40848;DHT22;26570;50.962;5.340;2023-03-07T17:00:21;5.20;99.90
40848;DHT22;26570;50.962;5.340;2023-03-07T17:03:08;5.20;99.90
40848;DHT22;26570;50.962;5.340;2023-03-07T17:05:54;5.40;99.90
40848;DHT22;26570;50.962;5.340;2023-03-07T17:08:39;5.30;99.90
40848;DHT22;26570;50.962;5.340;2023-03-07T17:11:25;5.10;99.90
40848;DHT22;26570;50.962;5.340;2023-03-07T17:14:14;5.00;99.90
40848;DHT22;26570;50.962;5.340;2023-03-07T17:17:00;5.00;99.90
40848;DHT22;26570;50.962;5.340;2023-03-07T17:19:45;5.10;99.90
40848;DHT22;26570;50.962;5.340;2023-03-07T17:22:31;5.10;99.90
40848;DHT22;26570;50.962;5.340;2023-03-07T17:25:38;5.00;99.90
40848;DHT22;26570;50.962;5.340;2023-03-07T17:28:23;4.70;99.90
40848;DHT22;26570;50.962;5.340;2023-03-07T17:31:09;4.60;99.90
40848;DHT22;26570;50.962;5.340;2023-03-07T17:33:54;4.40;99.90
40848;DHT22;26570;50.962;5.340;2023-03-07T17:36:40;4.50;99.90
40848;DHT22;26570;50.962;5.340;2023-03-07T17:39:26;4.40;99.90
40848;DHT22;26570;50.962;5.340;2023-03-07T17:42:14;4.50;99.90
40848;DHT22;26570;50.962;5.340;2023-03-07T17:45:00;4.40;99.90
40848;DHT22;26570;50.962;5.340;2023-03-07T17:47:51;4.40;99.90
40848;DHT22;26570;50.962;5.340;2023-03-07T17:50:39;4.40;99.90
40848;DHT22;26570;50.962;5.340;2023-03-07T17:53:25;4.40;99.90
40848;DHT22;26570;50.962;5.340;2023-03-07T17:56:11;4.30;99.90
40848;DHT22;26570;50.962;5.340;2023-03-07T17:59:00;4.00;99.90
40848;DHT22;26570;50.962;5.340;2023-03-07T18:01:45;4.30;99.90
40848;DHT22;26570;50.962;5.340;2023-03-07T18:04:31;4.30;99.90
40848;DHT22;26570;50.962;5.340;2023-03-07T18:07:17;4.40;99.90
40848;DHT22;26570;50.962;5.340;2023-03-07T18:10:07;4.40;99.90
40848;DHT22;26570;50.962;5.340;2023-03-07T18:12:58;4.30;99.90
40848;DHT22;26570;50.962;5.340;2023-03-07T18:15:45;4.40;99.90
40848;DHT22;26570;50.962;5.340;2023-03-07T18:18:55;4.30;99.90
40848;DHT22;26570;50.962;5.340;2023-03-07T18:21:46;4.50;99.90
40848;DHT22;26570;50.962;5.340;2023-03-07T18:24:34;4.40;99.90
40848;DHT22;26570;50.962;5.340;2023-03-07T18:27:47;4.60;99.90
40848;DHT22;26570;50.962;5.340;2023-03-07T18:30:59;4.70;99.90
40848;DHT22;26570;50.962;5.340;2023-03-07T18:33:52;4.50;99.90
40848;DHT22;26570;50.962;5.340;2023-03-07T18:37:00;4.60;99.90
40848;DHT22;26570;50.962;5.340;2023-03-07T18:39:47;4.30;99.90
40848;DHT22;26570;50.962;5.340;2023-03-07T18:42:36;4.40;99.90
40848;DHT22;26570;50.962;5.340;2023-03-07T18:45:45;4.50;99.90
40848;DHT22;26570;50.962;5.340;2023-03-07T18:48:35;4.20;99.90
40848;DHT22;26570;50.962;5.340;2023-03-07T18:51:24;4.10;99.90
40848;DHT22;26570;50.962;5.340;2023-03-07T18:54:18;4.00;99.90
40848;DHT22;26570;50.962;5.340;2023-03-07T18:57:07;3.90;99.90
40848;DHT22;26570;50.962;5.340;2023-03-07T18:59:52;4.10;99.90
40848;DHT22;26570;50.962;5.340;2023-03-07T19:02:38;4.30;99.90
40848;DHT22;26570;50.962;5.340;2023-03-07T19:05:50;4.20;99.90
40848;DHT22;26570;50.962;5.340;2023-03-07T19:08:36;4.00;99.90
40848;DHT22;26570;50.962;5.340;2023-03-07T19:11:49;3.90;99.90
40848;DHT22;26570;50.962;5.340;2023-03-07T19:14:57;3.90;99.90
40848;DHT22;26570;50.962;5.340;2023-03-07T19:17:45;3.90;99.90
40848;DHT22;26570;50.962;5.340;2023-03-07T19:20:30;4.00;99.90
40848;DHT22;26570;50.962;5.340;2023-03-07T19:23:27;4.00;99.90
40848;DHT22;26570;50.962;5.340;2023-03-07T19:26:17;3.90;99.90
40848;DHT22;26570;50.962;5.340;2023-03-07T19:29:05;4.10;99.90
40848;DHT22;26570;50.962;5.340;2023-03-07T19:32:02;4.00;99.90
40848;DHT22;26570;50.962;5.340;2023-03-07T19:34:50;4.00;99.90
40848;DHT22;26570;50.962;5.340;2023-03-07T19:38:01;3.90;99.90
40848;DHT22;26570;50.962;5.340;2023-03-07T19:41:16;3.90;99.90
40848;DHT22;26570;50.962;5.340;2023-03-07T19:44:24;3.90;99.90
40848;DHT22;26570;50.962;5.340;2023-03-07T19:47:18;4.00;99.90
40848;DHT22;26570;50.962;5.340;2023-03-07T19:50:15;4.00;99.90
40848;DHT22;26570;50.962;5.340;2023-03-07T19:53:01;3.90;99.90
40848;DHT22;26570;50.962;5.340;2023-03-07T19:55:46;3.80;99.90
40848;DHT22;26570;50.962;5.340;2023-03-07T19:58:37;3.70;99.90
40848;DHT22;26570;50.962;5.340;2023-03-07T20:01:25;3.80;99.90
40848;DHT22;26570;50.962;5.340;2023-03-07T20:04:12;4.10;99.90
40848;DHT22;26570;50.962;5.340;2023-03-07T20:07:20;4.00;99.90
40848;DHT22;26570;50.962;5.340;2023-03-07T20:10:06;4.00;99.90
40848;DHT22;26570;50.962;5.340;2023-03-07T20:12:52;4.10;99.90
40848;DHT22;26570;50.962;5.340;2023-03-07T20:15:38;4.00;99.90
40848;DHT22;26570;50.962;5.340;2023-03-07T20:18:24;4.00;99.90
40848;DHT22;26570;50.962;5.340;2023-03-07T20:21:13;4.00;99.90
40848;DHT22;26570;50.962;5.340;2023-03-07T20:23:58;4.00;99.90
40848;DHT22;26570;50.962;5.340;2023-03-07T20:26:46;4.10;99.90
40848;DHT22;26570;50.962;5.340;2023-03-07T20:29:54;4.10;99.90
40848;DHT22;26570;50.962;5.340;2023-03-07T20:33:02;4.20;99.90
40848;DHT22;26570;50.962;5.340;2023-03-07T20:35:47;4.20;99.90
40848;DHT22;26570;50.962;5.340;2023-03-07T20:38:34;4.20;99.90
40848;DHT22;26570;50.962;5.340;2023-03-07T20:41:21;4.10;99.90
40848;DHT22;26570;50.962;5.340;2023-03-07T20:44:30;4.00;99.90
40848;DHT22;26570;50.962;5.340;2023-03-07T20:47:14;4.00;99.90
40848;DHT22;26570;50.962;5.340;2023-03-07T20:49:59;3.70;99.90
40848;DHT22;26570;50.962;5.340;2023-03-07T20:52:44;3.80;99.90
40848;DHT22;26570;50.962;5.340;2023-03-07T20:55:33;3.70;99.90
40848;DHT22;26570;50.962;5.340;2023-03-07T20:58:21;3.70;99.90
40848;DHT22;26570;50.962;5.340;2023-03-07T21:01:18;3.70;99.90
40848;DHT22;26570;50.962;5.340;2023-03-07T21:04:10;3.60;99.90
40848;DHT22;26570;50.962;5.340;2023-03-07T21:06:56;3.80;99.90
40848;DHT22;26570;50.962;5.340;2023-03-07T21:10:04;3.90;99.90
40848;DHT22;26570;50.962;5.340;2023-03-07T21:12:52;4.00;99.90
40848;DHT22;26570;50.962;5.340;2023-03-07T21:15:39;3.90;99.90
40848;DHT22;26570;50.962;5.340;2023-03-07T21:18:26;3.70;99.90
40848;DHT22;26570;50.962;5.340;2023-03-07T21:21:19;3.70;99.90
40848;DHT22;26570;50.962;5.340;2023-03-07T21:24:07;3.80;99.90
40848;DHT22;26570;50.962;5.340;2023-03-07T21:26:53;3.70;99.90
40848;DHT22;26570;50.962;5.340;2023-03-07T21:29:42;3.60;99.90
40848;DHT22;26570;50.962;5.340;2023-03-07T21:32:29;3.50;99.90
40848;DHT22;26570;50.962;5.340;2023-03-07T21:35:14;3.50;99.90
40848;DHT22;26570;50.962;5.340;2023-03-07T21:37:59;3.50;99.90
40848;DHT22;26570;50.962;5.340;2023-03-07T21:40:44;3.60;99.90
40848;DHT22;26570;50.962;5.340;2023-03-07T21:43:30;3.50;99.90
40848;DHT22;26570;50.962;5.340;2023-03-07T21:46:19;3.40;99.90
40848;DHT22;26570;50.962;5.340;2023-03-07T21:49:27;3.30;99.90
40848;DHT22;26570;50.962;5.340;2023-03-07T21:52:13;3.30;99.90
40848;DHT22;26570;50.962;5.340;2023-03-07T21:54:58;3.30;99.90
40848;DHT22;26570;50.962;5.340;2023-03-07T21:58:06;3.30;99.90
40848;DHT22;26570;50.962;5.340;2023-03-07T22:00:52;3.30;99.90
40848;DHT22;26570;50.962;5.340;2023-03-07T22:03:59;3.20;99.90
40848;DHT22;26570;50.962;5.340;2023-03-07T22:06:45;3.40;99.90
40848;DHT22;26570;50.962;5.340;2023-03-07T22:09:32;3.50;99.90
40848;DHT22;26570;50.962;5.340;2023-03-07T22:12:18;3.60;99.90
40848;DHT22;26570;50.962;5.340;2023-03-07T22:15:04;3.70;99.90
40848;DHT22;26570;50.962;5.340;2023-03-07T22:17:49;3.70;99.90
40848;DHT22;26570;50.962;5.340;2023-03-07T22:20:37;3.70;99.90
40848;DHT22;26570;50.962;5.340;2023-03-07T22:23:25;3.60;99.90
40848;DHT22;26570;50.962;5.340;2023-03-07T22:26:11;3.60;99.90
40848;DHT22;26570;50.962;5.340;2023-03-07T22:28:57;3.70;99.90
40848;DHT22;26570;50.962;5.340;2023-03-07T22:31:42;3.70;99.90
40848;DHT22;26570;50.962;5.340;2023-03-07T22:34:52;3.50;99.90
40848;DHT22;26570;50.962;5.340;2023-03-07T22:37:41;3.60;99.90
40848;DHT22;26570;50.962;5.340;2023-03-07T22:40:26;3.70;99.90
40848;DHT22;26570;50.962;5.340;2023-03-07T22:43:11;3.70;99.90
40848;DHT22;26570;50.962;5.340;2023-03-07T22:45:56;3.60;99.90
40848;DHT22;26570;50.962;5.340;2023-03-07T22:48:41;3.80;99.90
40848;DHT22;26570;50.962;5.340;2023-03-07T22:51:27;3.60;99.90
40848;DHT22;26570;50.962;5.340;2023-03-07T22:54:12;3.60;99.90
40848;DHT22;26570;50.962;5.340;2023-03-07T22:56:58;3.60;99.90
40848;DHT22;26570;50.962;5.340;2023-03-07T23:00:06;3.40;99.90
40848;DHT22;26570;50.962;5.340;2023-03-07T23:02:53;3.50;99.90
40848;DHT22;26570;50.962;5.340;2023-03-07T23:05:38;3.50;99.90
40848;DHT22;26570;50.962;5.340;2023-03-07T23:08:24;3.40;99.90
40848;DHT22;26570;50.962;5.340;2023-03-07T23:11:09;3.60;99.90
40848;DHT22;26570;50.962;5.340;2023-03-07T23:13:54;3.40;99.90
40848;DHT22;26570;50.962;5.340;2023-03-07T23:17:02;2.80;99.90
40848;DHT22;26570;50.962;5.340;2023-03-07T23:19:50;3.30;99.90
40848;DHT22;26570;50.962;5.340;2023-03-07T23:22:36;3.50;99.90
40848;DHT22;26570;50.962;5.340;2023-03-07T23:25:24;3.80;99.90
40848;DHT22;26570;50.962;5.340;2023-03-07T23:28:10;3.70;99.90
40848;DHT22;26570;50.962;5.340;2023-03-07T23:30:56;3.60;99.90
40848;DHT22;26570;50.962;5.340;2023-03-07T23:34:07;3.70;99.90
40848;DHT22;26570;50.962;5.340;2023-03-07T23:36:52;3.60;99.90
40848;DHT22;26570;50.962;5.340;2023-03-07T23:39:38;3.80;99.90
40848;DHT22;26570;50.962;5.340;2023-03-07T23:42:24;3.80;99.90
40848;DHT22;26570;50.962;5.340;2023-03-07T23:45:09;3.70;99.90
40848;DHT22;26570;50.962;5.340;2023-03-07T23:47:54;3.80;99.90
40848;DHT22;26570;50.962;5.340;2023-03-07T23:50:39;3.70;99.90
40848;DHT22;26570;50.962;5.340;2023-03-07T23:53:24;3.70;99.90
40848;DHT22;26570;50.962;5.340;2023-03-07T23:56:11;3.70;99.90
40848;DHT22;26570;50.962;5.340;2023-03-07T23:58:56;3.70;99.90
